Time;durP1;ratioP1;P1;durP2;ratioP2;P2;SDS_P1;SDS_P2;PMS_P1;PMS_P2;Temp;Humidity;BMP_temperature;BMP_pressure;BME280_temperature;BME280_humidity;BME280_pressure;Samples;Min_cycle;Max_cycle;Signal;HPM_P1;HPM_P2
2022/08/11 00:01:28;;;;;;;7.63;3.17;;;;;;;14.78;100.00;102115.78;5015078;28;20148;-74
2022/08/11 00:03:57;;;;;;;4.50;3.40;;;;;;;14.72;100.00;102113.69;5007130;28;20029;-74
2022/08/11 00:06:36;;;;;;;9.38;3.83;;;;;;;14.74;100.00;102118.94;4990186;28;20032;-75
2022/08/11 00:09:05;;;;;;;5.82;3.15;;;;;;;14.74;100.00;102117.06;4985458;28;20033;-75
2022/08/11 00:11:45;;;;;;;4.50;2.85;;;;;;;14.76;100.00;102123.13;5000755;28;20021;-75
2022/08/11 00:14:19;;;;;;;8.25;3.88;;;;;;;14.81;100.00;102127.22;4991989;28;20030;-75
2022/08/11 00:17:02;;;;;;;5.28;3.08;;;;;;;14.80;100.00;102122.81;4999229;28;20092;-75
2022/08/11 00:19:31;;;;;;;6.43;3.47;;;;;;;14.77;100.00;102118.59;5014755;28;20430;-74
2022/08/11 00:21:58;;;;;;;5.72;3.33;;;;;;;14.71;100.00;102113.88;5001092;28;20034;-74
2022/08/11 00:24:24;;;;;;;5.88;3.30;;;;;;;14.68;100.00;102117.72;5004597;28;20069;-75
2022/08/11 00:26:51;;;;;;;4.30;3.67;;;;;;;14.72;100.00;102124.44;4989284;28;20045;-75
2022/08/11 00:29:18;;;;;;;5.25;3.42;;;;;;;14.72;100.00;102124.44;4989512;28;20034;-75
2022/08/11 00:31:50;;;;;;;6.57;3.50;;;;;;;14.67;100.00;102118.69;4988833;28;20025;-75
2022/08/11 00:34:21;;;;;;;5.70;3.83;;;;;;;14.64;100.00;102112.81;4989563;28;20030;-75
2022/08/11 00:36:54;;;;;;;5.65;3.40;;;;;;;14.63;100.00;102121.84;4989154;28;20208;-75
2022/08/11 00:39:22;;;;;;;5.95;3.20;;;;;;;14.66;100.00;102126.94;4988818;28;20060;-75
2022/08/11 00:41:48;;;;;;;5.57;3.55;;;;;;;14.63;100.00;102129.91;4988658;28;20469;-74
2022/08/11 00:44:39;;;;;;;5.23;3.30;;;;;;;14.55;100.00;102123.47;5004455;28;20045;-75
2022/08/11 00:47:30;;;;;;;11.88;3.67;;;;;;;14.51;100.00;102113.16;4991114;28;20037;-74
2022/08/11 00:50:34;;;;;;;6.93;3.35;;;;;;;14.46;100.00;102115.47;4984547;28;20362;-75
2022/08/11 00:53:05;;;;;;;3.40;2.80;;;;;;;14.42;100.00;102111.41;5023175;28;20029;-75
2022/08/11 00:55:52;;;;;;;7.15;3.85;;;;;;;14.39;100.00;102111.72;4988622;28;20036;-75
2022/08/11 00:58:53;;;;;;;4.22;3.22;;;;;;;14.36;100.00;102113.72;5005314;28;20037;-74
2022/08/11 01:01:35;;;;;;;5.47;3.35;;;;;;;14.32;100.00;102106.13;4988788;28;20052;-75
2022/08/11 01:04:13;;;;;;;5.40;3.42;;;;;;;14.31;100.00;102110.66;5000751;28;20065;-75
2022/08/11 01:06:57;;;;;;;3.78;3.30;;;;;;;14.27;100.00;102119.16;5001128;28;20072;-74
2022/08/11 01:09:57;;;;;;;3.65;2.78;;;;;;;14.22;100.00;102110.72;5004371;28;20080;-75
2022/08/11 01:12:27;;;;;;;6.60;3.45;;;;;;;14.18;100.00;102106.66;4988793;28;20033;-75
2022/08/11 01:15:28;;;;;;;6.47;3.47;;;;;;;14.19;100.00;102121.75;4999877;28;20080;-75
2022/08/11 01:18:09;;;;;;;5.97;3.00;;;;;;;14.15;100.00;102116.69;5005590;28;20357;-74
2022/08/11 01:21:10;;;;;;;7.07;4.00;;;;;;;14.22;100.00;102118.78;5003809;28;20511;-75
2022/08/11 01:24:06;;;;;;;4.63;3.30;;;;;;;14.16;100.00;102120.22;5012828;28;20022;-75
2022/08/11 01:27:14;;;;;;;3.83;3.03;;;;;;;14.07;100.00;102122.00;5004385;28;20044;-77
2022/08/11 01:30:04;;;;;;;4.65;3.30;;;;;;;14.07;100.00;102122.00;4999358;28;20538;-77
2022/08/11 01:33:07;;;;;;;5.18;3.28;;;;;;;14.03;100.00;102119.78;4992864;28;20076;-77
2022/08/11 01:35:37;;;;;;;4.20;3.53;;;;;;;14.01;100.00;102116.38;5008911;28;20038;-76
2022/08/11 01:38:40;;;;;;;3.10;2.80;;;;;;;13.97;100.00;102109.63;5006287;28;20041;-74
2022/08/11 01:45:02;;;;;;;3.88;3.45;;;;;;;13.87;100.00;102099.78;5010347;28;20041;-75
2022/08/11 01:47:59;;;;;;;3.97;3.47;;;;;;;13.87;100.00;102099.78;4970243;28;20119;-75
2022/08/11 01:50:47;;;;;;;6.15;3.60;;;;;;;13.88;100.00;102112.25;4991638;28;20474;-75
2022/08/11 01:53:41;;;;;;;5.50;3.35;;;;;;;13.87;100.00;102117.75;5009595;28;20832;-74
2022/08/11 01:56:28;;;;;;;7.40;3.90;;;;;;;13.86;100.00;102119.59;4989911;28;20033;-75
2022/08/11 01:59:15;;;;;;;9.15;4.53;;;;;;;13.84;100.00;102121.59;4991946;28;20072;-75
2022/08/11 02:01:57;;;;;;;5.90;4.00;;;;;;;13.81;100.00;102121.84;5004170;28;20502;-76
2022/08/11 02:04:41;;;;;;;13.48;4.55;;;;;;;13.79;100.00;102123.88;5007700;28;20052;-75
2022/08/11 02:07:18;;;;;;;5.18;3.92;;;;;;;13.76;100.00;102113.41;5009537;28;20038;-75
2022/08/11 02:09:43;;;;;;;7.25;3.83;;;;;;;13.76;100.00;102112.59;5008800;28;20475;-76
2022/08/11 02:12:21;;;;;;;5.20;4.20;;;;;;;13.75;100.00;102127.00;5005523;28;20025;-75
2022/08/11 02:15:19;;;;;;;4.72;3.55;;;;;;;13.75;100.00;102127.00;5010608;28;20811;-75
2022/08/11 02:18:15;;;;;;;7.38;4.32;;;;;;;13.72;100.00;102109.38;4996640;28;20464;-76
2022/08/11 02:23:51;;;;;;;5.93;3.85;;;;;;;13.67;100.00;102109.81;5027923;28;20041;-76
2022/08/11 02:26:30;;;;;;;5.07;4.22;;;;;;;13.71;100.00;102116.56;4992490;28;20517;-76
2022/08/11 02:29:02;;;;;;;6.47;4.22;;;;;;;13.71;100.00;102113.03;5006047;28;20482;-76
2022/08/11 02:34:55;;;;;;;9.48;5.03;;;;;;;13.63;100.00;102108.41;4998535;28;20045;-75
2022/08/11 02:37:29;;;;;;;6.93;4.93;;;;;;;13.71;100.00;102110.34;4991593;28;20030;-76
2022/08/11 02:39:58;;;;;;;8.15;4.72;;;;;;;13.69;100.00;102120.38;5001872;28;20045;-75
2022/08/11 02:42:44;;;;;;;5.90;4.53;;;;;;;13.69;100.00;102123.91;5009799;28;20437;-75
2022/08/11 02:45:47;;;;;;;7.18;4.20;;;;;;;13.64;100.00;102120.00;4993822;28;20383;-75
2022/08/11 02:51:43;;;;;;;6.65;4.70;;;;;;;13.71;100.00;102121.09;5009066;28;20038;-76
2022/08/11 02:54:31;;;;;;;6.90;5.00;;;;;;;13.71;100.00;102126.44;5008741;28;20495;-75
2022/08/11 02:57:16;;;;;;;6.25;3.83;;;;;;;13.70;100.00;102124.78;4990657;28;20120;-75
2022/08/11 02:59:50;;;;;;;7.30;4.57;;;;;;;13.65;100.00;102121.66;5015917;28;20072;-75
2022/08/11 03:02:33;;;;;;;7.18;4.00;;;;;;;13.63;100.00;102123.69;5006762;28;20076;-75
2022/08/11 03:05:10;;;;;;;6.22;3.75;;;;;;;13.65;100.00;102124.34;5011968;28;20046;-75
2022/08/11 03:07:39;;;;;;;7.45;4.25;;;;;;;13.62;100.00;102121.97;5006165;28;20037;-75
2022/08/11 03:10:25;;;;;;;9.27;3.88;;;;;;;13.58;100.00;102120.56;5015841;28;20026;-75
2022/08/11 03:19:24;;;;;;;9.20;4.35;;;;;;;13.57;100.00;102127.78;4946204;29;20043;-75
2022/08/11 03:22:07;;;;;;;5.78;3.80;;;;;;;13.47;100.00;102116.28;5004261;28;20108;-76
2022/08/11 03:24:56;;;;;;;6.93;4.32;;;;;;;13.44;100.00;102117.41;5001909;28;20542;-74
2022/08/11 03:27:58;;;;;;;4.55;3.35;;;;;;;13.44;100.00;102124.63;4996777;28;20044;-75
2022/08/11 03:30:33;;;;;;;6.25;3.80;;;;;;;13.37;100.00;102119.00;5008025;28;20483;-75
2022/08/11 03:36:57;;;;;;;6.88;4.43;;;;;;;13.35;100.00;102104.88;5008042;28;20403;-75
2022/08/11 03:39:45;;;;;;;5.10;3.40;;;;;;;13.28;100.00;102103.78;5007822;28;20037;-75
2022/08/11 03:42:42;;;;;;;5.97;3.78;;;;;;;13.27;100.00;102107.41;5010301;28;20540;-75
2022/08/11 03:45:27;;;;;;;5.55;4.10;;;;;;;13.26;100.00;102106.56;5005622;28;20505;-74
2022/08/11 03:48:12;;;;;;;4.50;3.25;;;;;;;13.25;100.00;102101.34;5007344;28;20128;-74
2022/08/11 03:51:17;;;;;;;6.90;3.95;;;;;;;13.27;100.00;102096.69;5005479;28;20091;-75
2022/08/11 03:54:21;;;;;;;5.67;3.87;;;;;;;13.26;100.00;102109.25;4976122;28;20050;-75
2022/08/11 03:57:17;;;;;;;5.35;3.80;;;;;;;13.25;100.00;102104.03;4997422;28;20038;-74
2022/08/11 04:00:09;;;;;;;4.97;3.50;;;;;;;13.28;100.00;102101.09;5001698;28;20037;-75
2022/08/11 04:02:58;;;;;;;5.85;3.30;;;;;;;13.31;100.00;102108.84;4997107;28;20029;-75
2022/08/11 04:05:48;;;;;;;5.05;3.80;;;;;;;13.39;100.00;102110.78;4979011;28;20456;-75
2022/08/11 04:08:49;;;;;;;9.35;4.35;;;;;;;13.43;100.00;102117.53;5005031;28;20034;-75
2022/08/11 04:11:29;;;;;;;5.97;3.70;;;;;;;13.38;100.00;102115.31;4995609;28;20136;-75
2022/08/11 04:15:58;;;;;;;6.03;3.90;;;;;;;13.36;100.00;102108.41;5006741;28;20041;-75
2022/08/11 04:17:08;;;;;;;4.80;3.65;;;;;;;13.35;100.00;102107.56;5004801;28;20045;-75
2022/08/11 04:20:21;;;;;;;4.53;4.05;;;;;;;13.39;100.00;102111.66;5000672;28;20029;-75
2022/08/11 04:22:47;;;;;;;5.53;4.47;;;;;;;13.42;100.00;102105.13;5010433;28;20554;-74
2022/08/11 04:25:32;;;;;;;4.65;3.58;;;;;;;13.45;100.00;102112.88;5007465;28;20040;-75
2022/08/11 04:28:21;;;;;;;4.82;3.90;;;;;;;13.47;100.00;102111.75;4999609;28;20034;-75
2022/08/11 04:31:07;;;;;;;5.60;3.55;;;;;;;13.54;100.00;102113.84;5002088;28;20052;-74
2022/08/11 04:34:00;;;;;;;7.57;4.15;;;;;;;13.64;100.00;102115.47;4991435;28;20044;-74
2022/08/11 04:40:02;;;;;;;10.02;4.80;;;;;;;13.81;100.00;102124.53;5014024;28;20037;-74
2022/08/11 04:45:48;;;;;;;4.65;3.53;;;;;;;13.95;100.00;102112.44;5004787;28;20372;-75
2022/08/11 05:05:29;;;;;;;6.55;3.70;;;;;;;15.20;100.00;102128.47;5019936;28;20225;-76
2022/08/11 05:07:12;;;;;;;5.35;3.40;;;;;;;15.49;100.00;102134.50;5013790;28;20040;-75
2022/08/11 05:10:11;;;;;;;7.15;3.90;;;;;;;15.78;100.00;102128.75;4991361;28;20068;-76
2022/08/11 05:12:47;;;;;;;6.68;3.67;;;;;;;16.14;100.00;102120.47;4980363;28;20038;-74
2022/08/11 05:35:48;;;;;;;2.47;2.28;;;;;;;23.30;100.00;101609.53;5019269;28;20035;-76
2022/08/11 05:58:07;;;;;;;3.20;2.28;;;;;;;25.10;83.73;101509.44;5013746;28;20666;-75
2022/08/11 06:00:44;;;;;;;5.25;2.53;;;;;;;24.91;82.88;101510.63;4996132;28;20046;-75
2022/08/11 06:03:19;;;;;;;4.78;2.08;;;;;;;23.44;90.03;101550.25;5014789;28;20364;-77
2022/08/11 06:05:45;;;;;;;5.68;1.90;;;;;;;23.93;92.16;101671.91;5017320;28;20029;-76
2022/08/11 06:08:13;;;;;;;5.45;1.80;;;;;;;24.70;85.04;101627.59;5016461;28;20107;-76
2022/08/11 06:10:41;;;;;;;3.25;1.85;;;;;;;25.10;82.24;101636.97;5013312;28;20064;-76
2022/08/11 06:13:08;;;;;;;4.78;2.03;;;;;;;24.68;78.83;101516.94;4988399;28;20018;-76
2022/08/11 06:15:44;;;;;;;10.05;2.55;;;;;;;24.38;80.77;101565.06;5000579;28;20106;-76
2022/08/11 06:18:11;;;;;;;4.78;1.73;;;;;;;25.19;78.06;101621.91;5019963;28;20040;-76
2022/08/11 06:20:48;;;;;;;3.08;2.05;;;;;;;25.75;73.99;101598.50;5009137;28;20026;-75
2022/08/11 06:23:17;;;;;;;7.22;1.92;;;;;;;25.14;72.94;101494.19;5007424;28;20042;-76
2022/08/11 06:25:43;;;;;;;4.60;1.50;;;;;;;26.21;68.43;101535.63;5010753;28;20041;-75
2022/08/11 06:28:09;;;;;;;4.97;2.53;;;;;;;26.05;67.43;101469.69;4993587;28;20033;-75
2022/08/11 06:30:41;;;;;;;4.40;2.72;;;;;;;25.42;63.30;101231.03;5008705;28;20022;-76
2022/08/11 06:33:14;;;;;;;4.10;2.28;;;;;;;26.08;65.24;101488.38;5007690;28;20033;-75
2022/08/11 06:36:03;;;;;;;5.72;2.20;;;;;;;26.61;65.12;101589.44;5015702;28;20026;-76
2022/08/11 06:39:01;;;;;;;4.60;2.10;;;;;;;25.77;63.78;101436.91;5016160;28;20671;-76
2022/08/11 06:41:39;;;;;;;5.28;2.08;;;;;;;25.45;63.82;101445.63;4991361;28;20028;-76
2022/08/11 06:44:11;;;;;;;6.28;2.10;;;;;;;25.49;62.05;101349.22;4991462;28;20077;-76
2022/08/11 06:46:41;;;;;;;2.50;1.80;;;;;;;25.41;62.54;101406.22;5013114;28;20034;-77
2022/08/11 06:51:10;;;;;;;4.07;2.03;;;;;;;25.53;62.94;101469.84;4985316;28;20028;-76
2022/08/11 06:52:00;;;;;;;7.10;1.70;;;;;;;26.06;60.61;101451.41;5016316;28;20030;-76
2022/08/11 06:54:29;;;;;;;3.22;2.05;;;;;;;26.07;60.17;101418.28;5019268;28;20399;-76
2022/08/11 07:02:36;;;;;;;5.50;1.37;;;;;;;26.30;57.21;101348.03;5016884;28;20045;-76
2022/08/11 07:05:07;;;;;;;4.18;1.35;;;;;;;26.64;54.94;101283.03;5016124;28;20076;-76
2022/08/11 07:16:52;;;;;;;3.42;1.67;;;;;;;26.93;52.13;101250.75;5008418;28;20070;-76
2022/08/11 07:30:46;;;;;;;8.40;1.77;;;;;;;26.07;51.98;101125.53;5013521;28;20120;-76
2022/08/11 07:33:17;;;;;;;2.25;1.50;;;;;;;26.32;52.12;101203.53;5016185;28;20032;-76
2022/08/11 07:35:47;;;;;;;4.88;1.73;;;;;;;26.89;50.37;101186.59;5014153;28;20471;-76
2022/08/11 07:38:42;;;;;;;4.20;1.50;;;;;;;26.52;49.74;101066.84;5007771;28;20135;-76
2022/08/11 07:41:14;;;;;;;2.08;1.20;;;;;;;26.78;50.37;101178.56;5005571;28;20122;-76
2022/08/11 07:43:41;;;;;;;6.65;1.80;;;;;;;26.77;54.39;101451.63;5007500;28;20036;-77
2022/08/11 07:54:26;;;;;;;2.45;1.50;;;;;;;27.81;51.41;101340.03;5007562;28;20021;-77
2022/08/11 07:56:52;;;;;;;7.97;1.63;;;;;;;27.05;49.98;101086.19;4989419;28;20028;-76
2022/08/11 08:18:35;;;;;;;4.23;1.90;;;;;;;26.88;48.25;101028.81;5015589;28;20033;-77
2022/08/11 08:21:13;;;;;;;4.28;1.67;;;;;;;27.11;49.18;101166.50;5002036;28;20278;-77
2022/08/11 08:23:42;;;;;;;4.82;1.70;;;;;;;27.58;48.43;101171.19;4990751;28;20040;-78
2022/08/11 08:30:46;;;;;;;3.65;1.70;;;;;;;28.40;46.58;101199.84;5009680;28;20029;-77
2022/08/11 08:31:44;;;;;;;9.10;1.60;;;;;;;28.20;45.74;101079.81;4997090;28;20044;-77
2022/08/11 08:34:11;;;;;;;7.47;2.13;;;;;;;27.90;45.98;101008.44;5012897;28;20025;-76
2022/08/11 08:36:40;;;;;;;1.85;1.30;;;;;;;27.38;46.80;100965.50;4991007;28;20796;-75
2022/08/11 08:39:06;;;;;;;4.53;2.00;;;;;;;27.80;46.37;101069.56;5008354;28;20025;-78
2022/08/11 08:41:35;;;;;;;4.30;1.60;;;;;;;28.09;45.47;101069.91;4998416;28;20033;-75
2022/08/11 08:44:07;;;;;;;5.03;1.38;;;;;;;28.29;44.87;101008.72;5000097;28;20026;-77
2022/08/11 08:46:36;;;;;;;4.00;1.83;;;;;;;28.55;45.62;101149.63;4999449;28;20073;-76
2022/08/11 08:49:03;;;;;;;2.20;1.60;;;;;;;28.75;44.96;101134.25;5003012;28;20030;-76
2022/08/11 08:51:35;;;;;;;7.20;2.00;;;;;;;29.13;46.13;101324.50;5026684;28;20037;-77
2022/08/11 08:54:13;;;;;;;5.97;1.88;;;;;;;29.73;44.84;101313.75;5008498;28;20029;-76
2022/08/11 08:56:41;;;;;;;6.90;1.48;;;;;;;29.84;44.38;101244.66;5021008;28;20093;-77
2022/08/11 08:59:11;;;;;;;6.38;1.90;;;;;;;30.24;43.20;101204.31;4989500;28;20018;-76
2022/08/11 09:01:57;;;;;;;6.28;1.88;;;;;;;29.76;43.69;101106.81;4989375;28;20036;-75
2022/08/11 09:04:24;;;;;;;3.33;1.92;;;;;;;30.02;43.80;101181.88;5007773;28;20049;-77
2022/08/11 09:06:50;;;;;;;4.63;1.90;;;;;;;29.85;42.30;100949.13;4989756;28;20017;-77
2022/08/11 09:09:16;;;;;;;;;;;;;;;30.03;42.14;101001.81;5006013;28;20506;-77
2022/08/11 09:11:55;;;;;;;4.30;1.40;;;;;;;29.84;41.01;100847.59;5012746;28;19913;-77
2022/08/11 09:14:59;;;;;;;6.70;1.83;;;;;;;29.72;42.44;100977.28;4999297;28;20494;-77
2022/08/11 09:17:16;;;;;;;3.80;1.50;;;;;;;29.37;42.27;100882.84;5016113;28;20051;-77
2022/08/11 09:19:43;;;;;;;2.45;1.10;;;;;;;29.12;42.50;100844.53;4989170;28;20024;-75
2022/08/11 09:27:38;;;;;;;;;;;;;;;29.21;43.38;100928.03;5015289;28;20045;-77
2022/08/11 09:30:05;;;;;;;6.72;1.95;;;;;;;29.10;42.27;100800.00;5006344;28;19909;-75
2022/08/11 09:32:32;;;;;;;10.00;1.98;;;;;;;29.54;43.08;100977.91;4999969;28;20167;-77
2022/08/11 09:35:01;;;;;;;6.72;1.92;;;;;;;28.95;42.15;100757.75;5000757;28;20021;-77
2022/08/11 09:40:29;;;;;;;5.47;1.40;;;;;;;29.51;40.07;100653.94;5006127;28;20072;-75
2022/08/11 09:45:50;;;;;;;3.85;1.63;;;;;;;30.15;39.46;100768.25;5004484;28;20076;-77
2022/08/11 09:48:25;;;;;;;6.25;1.73;;;;;;;30.48;39.84;100873.09;5015187;28;20033;-77
2022/08/11 09:51:01;;;;;;;3.90;2.00;;;;;;;30.55;40.62;100983.75;5002637;28;20057;-77
2022/08/11 09:53:31;;;;;;;3.35;1.40;;;;;;;30.05;40.32;100799.47;5011670;28;20038;-77
2022/08/11 09:55:57;;;;;;;3.35;1.90;;;;;;;30.21;39.85;100794.63;4995161;28;20026;-76
2022/08/11 09:58:23;;;;;;;4.47;1.33;;;;;;;29.99;40.53;100788.81;5009566;28;20033;-77
2022/08/11 10:00:50;;;;;;;;;;;;;;;31.04;38.64;100901.91;5010142;28;20498;-77
2022/08/11 10:03:19;;;;;;;4.47;1.50;;;;;;;31.17;37.97;100759.75;4992911;28;19936;-78
2022/08/11 10:08:35;;;;;;;4.53;1.25;;;;;;;29.22;38.36;100324.91;5017800;28;20570;-76
2022/08/11 10:11:01;;;;;;;1.45;1.10;;;;;;;30.67;38.15;100705.06;4999110;28;20483;-77
2022/08/11 10:15:32;;;;;;;3.58;1.50;;;;;;;30.13;38.60;100577.78;5000200;28;20038;-74
2022/08/11 10:16:22;;;;;;;3.15;1.30;;;;;;;29.32;40.34;100629.94;5009742;28;20030;-77
2022/08/11 10:18:52;;;;;;;1.63;1.30;;;;;;;29.12;39.83;100511.97;5002789;28;20033;-76
2022/08/11 10:21:27;;;;;;;1.75;1.30;;;;;;;30.35;38.96;100744.38;5009366;28;20049;-77
2022/08/11 10:34:48;;;;;;;3.03;1.63;;;;;;;31.36;38.10;100909.47;5017072;28;20056;-77
2022/08/11 10:37:14;;;;;;;2.25;1.20;;;;;;;30.74;37.94;100674.41;5009429;28;20499;-75
2022/08/11 10:39:41;;;;;;;4.60;1.33;;;;;;;29.97;37.46;100438.75;4995943;28;20029;-75
2022/08/11 10:44:55;;;;;;;2.42;1.40;;;;;;;29.49;39.46;100557.97;5008637;28;20030;-75
2022/08/11 10:47:34;;;;;;;3.22;1.55;;;;;;;30.59;37.26;100596.38;5008840;28;20030;-76
2022/08/11 10:58:45;;;;;;;1.70;1.30;;;;;;;31.40;37.04;100756.09;5016837;28;20483;-75
2022/08/11 11:01:13;;;;;;;5.22;1.60;;;;;;;31.53;36.52;100686.31;4998552;28;20026;-76
2022/08/11 11:03:42;;;;;;;1.23;1.13;;;;;;;32.06;35.54;100686.97;5009264;28;20018;-75
2022/08/11 11:06:24;;;;;;;2.00;1.30;;;;;;;31.46;37.04;100674.84;4996301;28;20053;-77
2022/08/11 11:08:55;;;;;;;6.50;1.60;;;;;;;30.56;37.77;100539.16;4991680;28;20044;-75
2022/08/11 11:17:54;;;;;;;6.90;1.30;;;;;;;32.12;36.17;100838.44;4991384;28;20042;-76
2022/08/11 11:19:42;;;;;;;4.18;1.17;;;;;;;32.41;35.57;100765.47;5014291;28;20029;-76
2022/08/11 11:25:21;;;;;;;2.72;1.38;;;;;;;33.19;34.54;100710.91;5019806;28;20483;-76
2022/08/11 11:27:53;;;;;;;1.52;1.40;;;;;;;32.43;35.66;100654.66;5004629;28;20881;-77
2022/08/11 11:30:19;;;;;;;4.30;1.50;;;;;;;29.99;36.40;100100.78;5009232;28;20042;-77
2022/08/11 11:33:10;;;;;;;4.78;1.50;;;;;;;30.39;37.87;100402.00;4988273;28;20014;-76
2022/08/11 11:35:46;;;;;;;5.63;1.50;;;;;;;31.36;37.41;100685.25;4998578;28;20018;-76
2022/08/11 11:38:12;;;;;;;5.38;1.95;;;;;;;31.59;35.63;100468.28;5017191;28;20034;-77
2022/08/11 11:40:38;;;;;;;;;;;;;;;31.30;35.79;100428.03;5019646;28;20025;-75
2022/08/11 11:43:04;;;;;;;1.85;1.67;;;;;;;31.75;35.54;100568.91;5019377;28;19916;-76
2022/08/11 11:45:29;;;;;;;;;;;;;;;32.58;34.79;100707.66;5001951;28;20032;-75
2022/08/11 11:47:58;;;;;;;1.48;1.08;;;;;;;33.00;33.62;100622.59;5019604;28;20282;-77
2022/08/11 11:50:30;;;;;;;4.20;1.15;;;;;;;32.99;33.69;100570.34;4998501;28;20434;-77
2022/08/11 11:52:57;;;;;;;3.65;1.30;;;;;;;33.50;33.01;100663.03;4990528;28;20030;-75
2022/08/11 11:55:25;;;;;;;6.40;1.25;;;;;;;33.29;33.23;100571.50;4990865;28;20053;-76
2022/08/11 12:03:25;;;;;;;5.43;1.83;;;;;;;30.97;36.12;100279.34;5007886;28;20727;-76
2022/08/11 12:05:52;;;;;;;4.07;1.30;;;;;;;31.96;35.39;100509.38;5009493;28;20052;-75
2022/08/11 12:08:19;;;;;;;4.15;1.23;;;;;;;30.74;35.07;100109.56;5007489;28;20037;-76
2022/08/11 12:10:48;;;;;;;3.85;1.52;;;;;;;31.83;35.72;100545.28;4989770;28;20026;-76
2022/08/11 12:16:02;;;;;;;4.20;1.10;;;;;;;31.04;34.91;100141.91;5011909;28;20029;-76
2022/08/11 12:18:39;;;;;;;2.92;1.17;;;;;;;30.73;36.06;100251.22;4992483;28;20494;-75
2022/08/11 12:21:06;;;;;;;6.38;1.20;;;;;;;30.30;36.20;100183.56;4993066;28;20395;-76
2022/08/11 12:29:05;;;;;;;1.88;1.40;;;;;;;32.35;35.10;100651.50;5011101;28;20030;-76
2022/08/11 12:31:36;;;;;;;4.03;1.05;;;;;;;32.75;34.40;100648.91;5015105;28;20087;-76
2022/08/11 12:34:08;;;;;;;2.88;1.30;;;;;;;31.67;33.86;100194.38;5015185;28;20100;-76
2022/08/11 12:37:04;;;;;;;5.50;1.25;;;;;;;30.74;34.53;100026.91;4997818;28;20471;-75
2022/08/11 12:45:28;;;;;;;6.07;1.25;;;;;;;30.88;36.28;100377.66;5007067;28;20125;-78
2022/08/11 12:53:40;;;;;;;2.15;1.42;;;;;;;31.91;36.02;100671.50;5001264;28;20029;-75
2022/08/11 12:58:51;;;;;;;2.80;1.20;;;;;;;31.66;36.54;100629.50;4997646;28;20171;-75
2022/08/11 13:06:50;;;;;;;2.70;1.20;;;;;;;31.31;36.23;100465.53;5020877;28;20014;-77
2022/08/11 13:09:18;;;;;;;6.90;1.60;;;;;;;29.33;37.71;100072.66;5016524;28;20032;-75
2022/08/11 13:14:31;;;;;;;10.05;1.58;;;;;;;29.61;37.54;100151.31;5008189;28;20081;-75
2022/08/11 13:19:43;;;;;;;;;;;;;;;29.87;37.22;100241.63;4988997;28;20129;-76
2022/08/11 13:22:10;;;;;;;3.90;1.42;;;;;;;30.05;36.83;100232.47;4938879;28;19936;-75
2022/08/11 13:24:36;;;;;;;4.50;1.40;;;;;;;29.61;37.47;100217.31;4997472;28;20022;-75
2022/08/11 13:27:02;;;;;;;;;;;;;;;30.46;36.45;100366.63;4966396;28;20061;-76
2022/08/11 13:29:28;;;;;;;3.08;1.02;;;;;;;29.99;36.65;100221.88;4999667;28;19956;-76
2022/08/11 13:31:55;;;;;;;;;;;;;;;29.96;36.88;100253.56;4996149;28;20117;-76
2022/08/11 13:34:22;;;;;;;2.45;1.23;;;;;;;30.08;36.61;100278.66;5002215;28;19990;-75
2022/08/11 13:36:53;;;;;;;2.70;1.35;;;;;;;29.85;36.73;100225.44;5021691;28;20048;-75
2022/08/11 13:39:21;;;;;;;1.92;1.13;;;;;;;29.74;36.64;100151.69;4985659;28;20454;-75
2022/08/11 13:41:48;;;;;;;3.30;1.50;;;;;;;29.90;36.44;100205.28;5000497;28;20010;-76
2022/08/11 13:44:16;;;;;;;3.30;1.63;;;;;;;29.70;37.19;100242.22;5002181;28;20118;-75
2022/08/11 13:46:42;;;;;;;7.90;1.25;;;;;;;30.08;35.30;100116.25;5022096;28;20017;-79
2022/08/11 13:49:09;;;;;;;5.75;1.38;;;;;;;29.90;36.08;100116.38;5012818;28;20092;-76
2022/08/11 13:51:38;;;;;;;3.03;1.15;;;;;;;30.77;35.82;100412.03;5016622;28;20032;-78
2022/08/11 13:54:10;;;;;;;3.50;1.00;;;;;;;30.29;35.56;100159.91;4992181;28;20038;-78
2022/08/11 13:56:42;;;;;;;1.27;1.00;;;;;;;29.36;36.49;100036.31;5014793;28;20065;-75
2022/08/11 13:59:09;;;;;;;3.03;1.30;;;;;;;29.45;36.51;100081.22;5031596;28;20159;-75
2022/08/11 14:01:41;;;;;;;1.80;1.25;;;;;;;30.59;36.04;100351.22;5019555;28;20100;-77
2022/08/11 14:04:13;;;;;;;3.83;0.95;;;;;;;30.11;35.85;100169.06;5018075;28;20035;-76
2022/08/11 14:06:45;;;;;;;2.65;1.27;;;;;;;29.00;36.27;99856.44;5021722;28;20493;-77
2022/08/11 14:09:18;;;;;;;2.38;1.00;;;;;;;28.70;36.98;99945.75;5002968;28;20037;-75
2022/08/11 14:14:32;;;;;;;1.05;0.80;;;;;;;29.20;37.18;100074.31;5021421;28;20497;-76
2022/08/11 14:17:03;;;;;;;1.42;0.90;;;;;;;29.53;37.33;100225.47;5021697;28;20055;-75
2022/08/11 14:19:34;;;;;;;5.07;1.52;;;;;;;29.95;36.31;100271.22;4999964;28;20061;-75
2022/08/11 14:22:07;;;;;;;4.50;1.27;;;;;;;30.84;35.92;100451.88;4999803;28;20033;-75
2022/08/11 14:24:38;;;;;;;4.53;0.93;;;;;;;31.27;35.66;100541.72;4998997;28;20114;-76
2022/08/11 14:27:06;;;;;;;2.97;1.33;;;;;;;30.90;34.79;100271.50;5007473;28;20041;-76
2022/08/11 14:29:37;;;;;;;4.38;1.55;;;;;;;31.19;35.45;100432.97;4999586;28;20025;-76
2022/08/11 14:32:06;;;;;;;4.50;1.00;;;;;;;30.88;35.44;100350.09;5006916;28;20463;-76
2022/08/11 14:34:33;;;;;;;1.15;1.00;;;;;;;31.06;35.22;100365.69;4986655;28;20032;-78
2022/08/11 14:37:05;;;;;;;2.72;0.90;;;;;;;31.20;34.88;100331.75;5009692;28;20021;-75
2022/08/11 14:39:37;;;;;;;2.00;1.10;;;;;;;31.47;34.95;100458.59;5027405;28;20968;-79
2022/08/11 14:48:04;;;;;;;4.95;1.30;;;;;;;30.75;35.01;100244.28;4928253;29;20035;-76
2022/08/11 14:50:32;;;;;;;1.42;0.88;;;;;;;30.34;35.08;100106.66;4988168;28;20128;-76
2022/08/11 14:53:10;;;;;;;2.63;1.20;;;;;;;30.36;34.93;100093.41;5008309;28;20041;-77
2022/08/11 14:58:28;;;;;;;2.92;1.27;;;;;;;29.84;36.40;100166.03;5016722;28;20088;-75
2022/08/11 15:00:56;;;;;;;2.70;1.10;;;;;;;29.93;35.75;100094.59;4973891;28;20493;-75
2022/08/11 15:03:24;;;;;;;2.28;1.10;;;;;;;29.58;36.36;100046.63;4991033;28;21017;-77
2022/08/11 15:05:56;;;;;;;2.28;1.00;;;;;;;28.91;36.26;99863.78;4991371;28;20507;-75
2022/08/11 15:08:53;;;;;;;5.90;1.95;;;;;;;30.15;36.57;100325.03;4999082;28;20045;-76
2022/08/11 15:14:02;;;;;;;2.60;1.02;;;;;;;29.97;35.61;100103.03;4993825;28;20049;-75
2022/08/11 15:19:14;;;;;;;1.67;1.02;;;;;;;29.28;36.45;100037.84;5019601;28;20034;-77
2022/08/11 15:24:24;;;;;;;3.47;1.00;;;;;;;28.32;38.30;99909.38;5005236;28;20038;-76
2022/08/11 15:38:00;;;;;;;2.63;1.27;;;;;;;27.55;39.05;99937.94;4939811;28;20034;-76
2022/08/11 15:46:47;;;;;;;2.28;1.27;;;;;;;28.10;38.66;100066.41;5005464;28;20510;-77
2022/08/11 15:49:29;;;;;;;4.97;1.20;;;;;;;28.20;39.52;100245.44;4986063;28;20072;-77
2022/08/11 15:52:01;;;;;;;3.67;0.93;;;;;;;27.92;38.05;99970.09;5001165;28;20089;-75
2022/08/11 15:54:29;;;;;;;1.83;1.55;;;;;;;28.09;38.77;100062.84;5025982;28;20033;-78
2022/08/11 15:57:00;;;;;;;4.82;1.27;;;;;;;27.49;39.20;99922.72;5018788;28;20025;-75
2022/08/11 16:05:09;;;;;;;2.88;1.30;;;;;;;27.44;38.41;99846.00;5016662;28;20030;-75
2022/08/11 16:07:36;;;;;;;2.35;0.90;;;;;;;27.41;37.91;99795.34;5007318;28;20112;-75
2022/08/11 16:10:06;;;;;;;7.03;1.27;;;;;;;27.88;38.77;100039.53;4990573;28;20032;-77
2022/08/11 16:12:36;;;;;;;1.63;0.90;;;;;;;27.57;39.39;100056.34;5006929;28;20164;-78
2022/08/11 16:17:57;;;;;;;2.72;1.20;;;;;;;27.57;39.75;100084.59;5008834;28;20038;-74
2022/08/11 16:20:26;;;;;;;2.60;1.35;;;;;;;27.96;38.71;100112.97;4988903;28;20037;-75
2022/08/11 16:22:55;;;;;;;2.92;1.20;;;;;;;28.17;38.98;100190.34;5006386;28;20045;-77
2022/08/11 16:25:23;;;;;;;3.53;1.30;;;;;;;27.71;39.17;100037.28;5006599;28;20068;-75
2022/08/11 16:28:06;;;;;;;7.55;1.25;;;;;;;27.25;40.34;100057.81;5008272;28;20060;-76
2022/08/11 16:30:34;;;;;;;3.90;0.98;;;;;;;27.70;39.85;100148.88;4996057;28;20108;-77
2022/08/11 16:33:03;;;;;;;2.60;1.10;;;;;;;27.83;39.40;100113.63;5006621;28;20074;-76
2022/08/11 16:38:34;;;;;;;2.38;1.00;;;;;;;27.28;39.34;99974.22;5016494;28;20132;-75